Pagrindinis puslapis
METAR-TAF:

METAR-TAF

Oro uostai :

Stokmarknes, Norvegija

platuma: 68-35N, ilguma: 015-01E, Aukštis: 0 m

Dabartinis oras

Ataskaita buvo paskelbta 28 minutes, ne 12:50 UTC
Vėjas 6 kt iš Pietų
Temperatūra 4°C
Drėgmė 48%
Slėgis 1021 hPa
Matomumas 10 km arba daugiau
nėra debesų žemiau 1500 m ir nėra kamuolinių lietaus debesų

METAR: ENSK 201250Z 17006KT CAVOK 04/M06 Q1021

Laikas: 15:18 (13:18 UTC)

Prognozė

Ataskaita buvo paskelbta 5 valandos ir 18 minutes, ne 08:00 UTC
Prognozė galioja nuo 20 metu 09 UTC su 20 metu 15 UTC
Vėjas 8 kt iš Rytų/Pietryčių
Matomumas 10 km arba daugiau
nėra debesų žemiau 1500 m ir nėra kamuolinių lietaus debesų

TAF: ENSK 200800Z 2009/2015 12008KT CAVOK

Orai ataskaitas ir orų prognozės (METAR, TAF).

turimą stotys yra geltonos ir raudonos taškus žemėlapyje.

Perkelti pele per norėdami pamatyti stoties vardą.

Tada spustelėkite, norėdami matyti oro stebėjimo ir prognozės.

Norėdami pakeisti žemėlapį: spustelėkite ant žalios mygtukų su juodo kryžiaus žemyn,; žalią mygtuką su brūkšneliu, jei norite nutolinti; arba žalių rodyklių gretimoms žemėlapius.


METAR-TAF: